createdAt,value
2023-05-14T00:00:09.122Z,23.30
2023-05-14T00:05:11.260Z,22.60
2023-05-14T00:10:13.060Z,19.10
2023-05-14T00:15:14.792Z,24.50
2023-05-14T00:20:16.469Z,22.70
2023-05-14T00:25:18.144Z,16.80
2023-05-14T00:30:20.275Z,19.10
2023-05-14T00:35:22.167Z,19.60
2023-05-14T00:40:27.065Z,23.60
2023-05-14T00:45:29.235Z,21.30
2023-05-14T00:50:30.907Z,23.70
2023-05-14T00:55:32.664Z,24.30
2023-05-14T01:00:34.720Z,22.10
2023-05-14T01:05:43.648Z,20.10
2023-05-14T01:10:52.415Z,20.10
2023-05-14T01:15:57.678Z,19.00
2023-05-14T01:20:59.376Z,19.00
2023-05-14T01:26:01.061Z,21.70
2023-05-14T01:31:23.393Z,17.40
2023-05-14T01:36:25.502Z,21.00
2023-05-14T01:41:29.564Z,22.20
2023-05-14T01:46:33.133Z,25.40
2023-05-14T01:51:35.460Z,24.90
2023-05-14T01:56:37.720Z,21.90
2023-05-14T02:01:39.626Z,20.30
2023-05-14T02:06:41.362Z,25.00
2023-05-14T02:11:43.056Z,25.20
2023-05-14T02:16:44.717Z,18.80
2023-05-14T02:21:46.696Z,22.20
2023-05-14T02:26:48.506Z,22.60
2023-05-14T02:31:50.436Z,22.40
2023-05-14T02:36:52.375Z,24.10
2023-05-14T02:41:54.083Z,25.30
2023-05-14T02:46:55.828Z,21.20
2023-05-14T02:51:57.688Z,24.00
2023-05-14T02:56:59.363Z,25.70
2023-05-14T03:02:01.075Z,26.00
2023-05-14T03:07:03.514Z,25.70
2023-05-14T03:12:07.030Z,25.40
2023-05-14T03:17:09.006Z,25.90
2023-05-14T03:22:10.901Z,24.20
2023-05-14T03:27:12.577Z,27.20
2023-05-14T03:37:16.671Z,22.60
2023-05-14T03:42:18.406Z,21.60
2023-05-14T03:47:20.084Z,20.20
2023-05-14T03:52:21.819Z,22.20
2023-05-14T03:57:23.611Z,19.30
2023-05-14T04:07:12.539Z,20.20
2023-05-14T04:12:14.368Z,22.10
2023-05-14T04:17:16.254Z,23.60
2023-05-14T04:22:17.987Z,23.00
2023-05-14T04:27:21.367Z,19.30
2023-05-14T04:32:23.340Z,17.10
2023-05-14T04:37:26.142Z,14.50
2023-05-14T04:42:27.918Z,18.00
2023-05-14T04:47:29.758Z,13.30
2023-05-14T04:52:31.547Z,14.30
2023-05-14T04:57:33.274Z,12.70
2023-05-14T05:02:35.213Z,16.30
2023-05-14T05:07:36.973Z,13.10
2023-05-14T05:12:38.917Z,14.20
2023-05-14T05:17:40.734Z,13.60
2023-05-14T05:22:42.402Z,12.90
2023-05-14T05:27:44.167Z,10.30
2023-05-14T05:32:46.249Z,11.90
2023-05-14T05:37:48.132Z,13.40
2023-05-14T05:42:49.839Z,9.90
2023-05-14T05:47:51.746Z,10.30
2023-05-14T05:52:53.427Z,9.50
2023-05-14T05:57:55.589Z,15.90
2023-05-14T06:02:57.294Z,14.20
2023-05-14T06:07:59.441Z,14.20
2023-05-14T06:13:01.187Z,12.30
2023-05-14T06:18:03.101Z,12.50
2023-05-14T06:23:04.880Z,11.10
2023-05-14T06:28:06.589Z,11.00
2023-05-14T06:33:08.312Z,12.40
2023-05-14T06:38:09.955Z,12.40
2023-05-14T06:43:11.712Z,16.20
2023-05-14T06:48:13.529Z,14.20
2023-05-14T06:53:15.657Z,12.00
2023-05-14T06:58:17.338Z,14.40
2023-05-14T07:03:19.474Z,10.70
2023-05-14T07:08:21.092Z,10.70
2023-05-14T07:13:23.315Z,12.20
2023-05-14T07:18:25.152Z,10.80
2023-05-14T07:23:26.896Z,10.80
2023-05-14T07:28:28.625Z,12.90
2023-05-14T07:33:30.374Z,13.20
2023-05-14T07:38:32.715Z,7.60
2023-05-14T07:43:34.813Z,6.70
2023-05-14T07:48:36.638Z,6.40
2023-05-14T07:53:38.410Z,5.80
2023-05-14T07:58:41.442Z,5.80
2023-05-14T08:03:43.538Z,6.20
2023-05-14T08:08:45.320Z,4.50
2023-05-14T08:13:46.969Z,4.70
2023-05-14T08:18:49.255Z,4.80
2023-05-14T08:23:50.933Z,5.50
2023-05-14T08:28:54.462Z,4.80
2023-05-14T08:33:56.416Z,5.30
2023-05-14T08:38:58.259Z,5.60
2023-05-14T08:44:14.074Z,5.30
2023-05-14T08:49:40.732Z,6.30
2023-05-14T08:54:42.699Z,5.70
2023-05-14T08:59:44.586Z,7.70
2023-05-14T09:04:47.508Z,6.20
2023-05-14T09:09:49.463Z,6.60
2023-05-14T09:14:51.373Z,5.10
2023-05-14T09:19:53.648Z,6.50
2023-05-14T09:25:26.494Z,8.10
2023-05-14T09:30:28.315Z,5.60
2023-05-14T09:35:30.010Z,6.40
2023-05-14T09:40:31.794Z,6.40
2023-05-14T09:45:35.113Z,7.00
2023-05-14T09:50:46.642Z,7.10
2023-05-14T09:55:49.350Z,6.70
2023-05-14T10:00:51.924Z,5.50
2023-05-14T10:05:56.126Z,5.80
2023-05-14T10:10:59.457Z,4.00
2023-05-14T10:16:44.645Z,4.00
2023-05-14T10:21:53.140Z,3.30
2023-05-14T10:26:55.108Z,6.00
2023-05-14T10:31:56.876Z,3.60
2023-05-14T10:37:03.036Z,3.60
2023-05-14T10:42:05.126Z,2.60
2023-05-14T10:47:07.928Z,2.30
2023-05-14T10:52:10.543Z,2.70
2023-05-14T10:57:12.665Z,4.10
2023-05-14T11:02:21.723Z,3.50
2023-05-14T11:07:43.643Z,5.90
2023-05-14T11:12:47.265Z,4.30
2023-05-14T11:17:50.748Z,2.50
2023-05-14T11:22:52.765Z,4.40
2023-05-14T11:27:58.393Z,4.50
2023-05-14T11:33:02.090Z,2.90
2023-05-14T11:38:03.947Z,3.00
2023-05-14T11:43:05.767Z,1.70
2023-05-14T11:48:15.054Z,2.60
2023-05-14T11:53:30.896Z,2.10
2023-05-14T11:58:33.885Z,2.10
2023-05-14T12:03:36.003Z,2.40
2023-05-14T12:08:37.903Z,2.40
2023-05-14T12:13:39.652Z,2.20
2023-05-14T12:18:42.585Z,3.20
2023-05-14T12:23:44.445Z,2.70
2023-05-14T12:28:47.760Z,2.70
2023-05-14T12:33:49.406Z,4.90
2023-05-14T12:38:56.897Z,1.80
2023-05-14T12:44:00.007Z,2.20
2023-05-14T12:49:01.699Z,2.40
2023-05-14T12:54:03.638Z,3.20
2023-05-14T12:59:05.303Z,4.80
2023-05-14T13:04:07.935Z,1.90
2023-05-14T13:09:09.692Z,2.40
2023-05-14T13:14:11.344Z,5.70
2023-05-14T13:19:12.990Z,2.80
2023-05-14T13:24:15.312Z,4.60
2023-05-14T13:29:16.957Z,1.70
2023-05-14T13:34:18.889Z,1.80
2023-05-14T13:39:22.760Z,2.90
2023-05-14T13:44:24.630Z,1.90
2023-05-14T13:49:26.647Z,3.40
2023-05-14T13:54:28.316Z,3.10
2023-05-14T13:59:30.093Z,3.00
2023-05-14T14:04:32.102Z,3.80
2023-05-14T14:09:35.846Z,1.90
2023-05-14T14:14:37.528Z,1.70
2023-05-14T14:19:39.307Z,3.60
2023-05-14T14:24:41.040Z,5.60
2023-05-14T14:29:42.736Z,2.10
2023-05-14T14:34:44.458Z,2.00
2023-05-14T14:39:46.165Z,3.10
2023-05-14T14:44:47.819Z,2.60
2023-05-14T14:49:49.619Z,1.70
2023-05-14T14:54:51.773Z,2.60
2023-05-14T14:59:53.487Z,3.10
2023-05-14T15:04:55.851Z,2.20
2023-05-14T15:09:57.480Z,2.80
2023-05-14T15:14:59.143Z,1.20
2023-05-14T15:20:21.018Z,2.20
2023-05-14T15:25:24.287Z,2.70
2023-05-14T15:30:26.203Z,2.00
2023-05-14T15:35:27.914Z,4.90
2023-05-14T15:40:29.773Z,3.60
2023-05-14T15:45:31.550Z,3.60
2023-05-14T15:50:33.402Z,5.10
2023-05-14T15:55:35.602Z,3.00
2023-05-14T16:00:37.356Z,7.10
2023-05-14T16:05:39.159Z,4.40
2023-05-14T16:10:40.852Z,4.40
2023-05-14T16:15:43.014Z,3.90
2023-05-14T16:20:44.765Z,2.10
2023-05-14T16:25:46.635Z,2.50
2023-05-14T16:30:48.578Z,3.10
2023-05-14T16:35:51.388Z,5.90
2023-05-14T16:40:53.006Z,2.40
2023-05-14T16:45:55.877Z,4.40
2023-05-14T16:50:59.462Z,11.30
2023-05-14T16:56:01.749Z,10.10
2023-05-14T17:01:03.522Z,5.60
2023-05-14T17:06:05.645Z,5.50
2023-05-14T17:11:07.393Z,5.50
2023-05-14T17:16:09.100Z,5.00
2023-05-14T17:21:11.001Z,5.50
2023-05-14T17:26:12.789Z,5.60
2023-05-14T17:31:14.570Z,8.40
2023-05-14T17:36:16.695Z,3.70
2023-05-14T17:41:18.379Z,5.40
2023-05-14T17:46:21.314Z,4.50
2023-05-14T17:51:22.956Z,12.60
2023-05-14T17:56:24.746Z,6.70
2023-05-14T18:01:26.569Z,4.60
2023-05-14T18:06:28.500Z,6.60
2023-05-14T18:11:33.986Z,8.50
2023-05-14T18:16:37.097Z,7.00
2023-05-14T18:21:38.824Z,6.50
2023-05-14T18:26:40.740Z,9.60
2023-05-14T18:31:42.373Z,12.70
2023-05-14T18:36:44.110Z,10.60
2023-05-14T18:41:45.851Z,9.90
2023-05-14T18:46:47.635Z,9.20
2023-05-14T18:51:49.455Z,10.20
2023-05-14T18:56:51.286Z,6.70
2023-05-14T19:01:53.382Z,8.70
2023-05-14T19:06:55.127Z,11.80
2023-05-14T19:11:56.799Z,23.60
2023-05-14T19:16:58.977Z,20.90
2023-05-14T19:22:00.724Z,20.30
2023-05-14T19:27:02.549Z,9.80
2023-05-14T19:32:05.173Z,9.60
2023-05-14T19:37:07.239Z,8.80
2023-05-14T19:42:09.028Z,7.50
2023-05-14T19:47:10.907Z,8.50
2023-05-14T19:52:12.654Z,8.30
2023-05-14T19:57:14.350Z,10.10
2023-05-14T20:02:18.438Z,8.60
2023-05-14T20:07:20.411Z,9.80
2023-05-14T20:12:22.037Z,10.10
2023-05-14T20:17:24.889Z,7.90
2023-05-14T20:22:26.716Z,7.50
2023-05-14T20:27:28.451Z,7.70
2023-05-14T20:32:30.232Z,8.40
2023-05-14T20:37:32.574Z,9.40
2023-05-14T20:42:35.098Z,17.20
2023-05-14T20:47:36.932Z,21.40
2023-05-14T20:52:38.631Z,18.00
2023-05-14T20:57:40.887Z,17.30
2023-05-14T21:02:45.483Z,11.10
2023-05-14T21:07:48.291Z,12.40
2023-05-14T21:12:54.893Z,10.50
2023-05-14T21:17:56.597Z,9.50
2023-05-14T21:22:58.333Z,10.70
2023-05-14T21:28:00.144Z,10.00
2023-05-14T21:33:03.190Z,11.30
2023-05-14T21:38:04.929Z,9.70
2023-05-14T21:43:07.149Z,10.70
2023-05-14T21:48:10.765Z,12.40
2023-05-14T21:53:13.948Z,17.40
2023-05-14T21:58:15.778Z,14.40
2023-05-14T22:03:17.533Z,16.70
2023-05-14T22:08:19.245Z,14.50
2023-05-14T22:13:20.942Z,15.60
2023-05-14T22:18:24.214Z,15.90
2023-05-14T22:23:25.871Z,16.90
2023-05-14T22:28:27.573Z,15.90
2023-05-14T22:33:29.300Z,17.40
2023-05-14T22:38:30.997Z,18.10
2023-05-14T22:43:32.723Z,15.90
2023-05-14T22:48:34.417Z,17.00
2023-05-14T22:53:36.185Z,17.10
2023-05-14T22:58:37.897Z,21.20
2023-05-14T23:03:39.691Z,21.50
2023-05-14T23:08:42.940Z,16.70
2023-05-14T23:13:50.712Z,21.60
2023-05-14T23:18:52.780Z,18.50
2023-05-14T23:24:02.398Z,18.20
2023-05-14T23:29:04.075Z,23.20
2023-05-14T23:34:06.019Z,21.50
2023-05-14T23:39:08.679Z,20.10
2023-05-14T23:44:11.120Z,23.20
2023-05-14T23:49:14.233Z,18.20
2023-05-14T23:54:17.290Z,19.90
2023-05-14T23:59:19.018Z,14.50
